sensor_id;sensor_type;location;lat;lon;timestamp;pressure;altitude;pressure_sealevel;temperature;humidity
36260;BME280;22296;50.824;5.644;2023-02-22T00:00:44;100570.66;;;10.96;64.61
36260;BME280;22296;50.824;5.644;2023-02-22T00:03:25;100572.06;;;10.93;64.56
36260;BME280;22296;50.824;5.644;2023-02-22T00:05:57;100574.00;;;10.93;64.65
36260;BME280;22296;50.824;5.644;2023-02-22T00:08:27;100568.50;;;10.93;64.88
36260;BME280;22296;50.824;5.644;2023-02-22T00:11:02;100569.31;;;10.93;64.63
36260;BME280;22296;50.824;5.644;2023-02-22T00:13:29;100558.28;;;10.93;64.68
36260;BME280;22296;50.824;5.644;2023-02-22T00:15:57;100560.22;;;10.93;64.65
36260;BME280;22296;50.824;5.644;2023-02-22T00:18:26;100551.94;;;10.93;64.59
36260;BME280;22296;50.824;5.644;2023-02-22T00:20:59;100562.97;;;10.93;64.73
36260;BME280;22296;50.824;5.644;2023-02-22T00:23:29;100572.59;;;10.95;64.54
36260;BME280;22296;50.824;5.644;2023-02-22T00:25:58;100575.63;;;10.94;64.87
36260;BME280;22296;50.824;5.644;2023-02-22T00:28:25;100562.97;;;10.93;64.74
36260;BME280;22296;50.824;5.644;2023-02-22T00:30:52;100555.53;;;10.93;64.70
36260;BME280;22296;50.824;5.644;2023-02-22T00:33:20;100546.44;;;10.93;64.76
36260;BME280;22296;50.824;5.644;2023-02-22T00:35:47;100543.13;;;10.91;64.74
36260;BME280;22296;50.824;5.644;2023-02-22T00:38:17;100547.03;;;10.90;64.78
36260;BME280;22296;50.824;5.644;2023-02-22T00:40:44;100549.78;;;10.90;64.88
36260;BME280;22296;50.824;5.644;2023-02-22T00:43:11;100555.31;;;10.90;64.84
36260;BME280;22296;50.824;5.644;2023-02-22T00:45:40;100548.63;;;10.91;64.75
36260;BME280;22296;50.824;5.644;2023-02-22T00:48:07;100553.88;;;10.92;64.64
36260;BME280;22296;50.824;5.644;2023-02-22T00:50:35;100558.56;;;10.92;64.69
36260;BME280;22296;50.824;5.644;2023-02-22T00:53:03;100556.63;;;10.92;64.64
36260;BME280;22296;50.824;5.644;2023-02-22T00:55:33;100548.63;;;10.91;64.63
36260;BME280;22296;50.824;5.644;2023-02-22T00:58:00;100551.13;;;10.92;64.72
36260;BME280;22296;50.824;5.644;2023-02-22T01:00:30;100550.28;;;10.92;64.75
36260;BME280;22296;50.824;5.644;2023-02-22T01:02:57;100550.28;;;10.92;64.89
36260;BME280;22296;50.824;5.644;2023-02-22T01:05:27;100554.97;;;10.91;64.78
36260;BME280;22296;50.824;5.644;2023-02-22T01:07:55;100564.41;;;10.90;64.83
36260;BME280;22296;50.824;5.644;2023-02-22T01:10:24;100557.22;;;10.89;64.88
36260;BME280;22296;50.824;5.644;2023-02-22T01:12:51;100548.63;;;10.91;64.82
36260;BME280;22296;50.824;5.644;2023-02-22T01:15:22;100556.41;;;10.88;64.83
36260;BME280;22296;50.824;5.644;2023-02-22T01:17:50;100563.56;;;10.90;64.94
36260;BME280;22296;50.824;5.644;2023-02-22T01:20:20;100559.16;;;10.88;64.73
36260;BME280;22296;50.824;5.644;2023-02-22T01:22:53;100561.94;;;10.88;64.77
36260;BME280;22296;50.824;5.644;2023-02-22T01:25:26;100557.22;;;10.89;64.74
36260;BME280;22296;50.824;5.644;2023-02-22T01:27:54;100560.31;;;10.88;64.95
36260;BME280;22296;50.824;5.644;2023-02-22T01:30:27;100553.66;;;10.88;64.91
36260;BME280;22296;50.824;5.644;2023-02-22T01:32:55;100553.97;;;10.87;64.87
36260;BME280;22296;50.824;5.644;2023-02-22T01:35:26;100553.13;;;10.86;64.82
36260;BME280;22296;50.824;5.644;2023-02-22T01:37:54;100556.41;;;10.88;64.83
36260;BME280;22296;50.824;5.644;2023-02-22T01:40:28;100543.75;;;10.88;65.07
36260;BME280;22296;50.824;5.644;2023-02-22T01:42:58;100542.09;;;10.86;64.83
36260;BME280;22296;50.824;5.644;2023-02-22T01:50:49;100550.38;;;10.86;65.03
36260;BME280;22296;50.824;5.644;2023-02-22T01:53:22;100542.09;;;10.86;64.86
36260;BME280;22296;50.824;5.644;2023-02-22T01:55:51;100540.16;;;10.87;65.24
36260;BME280;22296;50.824;5.644;2023-02-22T01:58:20;100540.44;;;10.85;64.91
36260;BME280;22296;50.824;5.644;2023-02-22T02:00:48;100536.06;;;10.84;64.94
36260;BME280;22296;50.824;5.644;2023-02-22T02:03:21;100544.34;;;10.84;65.06
36260;BME280;22296;50.824;5.644;2023-02-22T02:05:55;100545.97;;;10.85;65.00
36260;BME280;22296;50.824;5.644;2023-02-22T02:08:46;100548.72;;;10.85;64.96
36260;BME280;22296;50.824;5.644;2023-02-22T02:11:19;100545.16;;;10.85;64.95
36260;BME280;22296;50.824;5.644;2023-02-22T02:13:49;100547.13;;;10.84;64.76
36260;BME280;22296;50.824;5.644;2023-02-22T02:16:17;100538.84;;;10.84;64.98
36260;BME280;22296;50.824;5.644;2023-02-22T02:18:44;100552.63;;;10.84;65.03
36260;BME280;22296;50.824;5.644;2023-02-22T02:37:10;100517.88;;;10.83;64.85
36260;BME280;22296;50.824;5.644;2023-02-22T02:40:02;100516.78;;;10.84;64.87
36260;BME280;22296;50.824;5.644;2023-02-22T02:42:37;100515.13;;;10.83;64.98
36260;BME280;22296;50.824;5.644;2023-02-22T02:45:11;100515.13;;;10.83;64.95
36260;BME280;22296;50.824;5.644;2023-02-22T02:47:43;100508.25;;;10.81;65.01
36260;BME280;22296;50.824;5.644;2023-02-22T02:50:30;100500.81;;;10.81;65.07
36260;BME280;22296;50.824;5.644;2023-02-22T02:53:01;100506.00;;;10.83;65.00
36260;BME280;22296;50.824;5.644;2023-02-22T02:55:30;100504.09;;;10.83;65.10
36260;BME280;22296;50.824;5.644;2023-02-22T02:57:58;100500.81;;;10.81;65.00
36260;BME280;22296;50.824;5.644;2023-02-22T03:00:30;100492.81;;;10.80;65.03
36260;BME280;22296;50.824;5.644;2023-02-22T03:03:15;100492.81;;;10.80;65.05
36260;BME280;22296;50.824;5.644;2023-02-22T03:08:44;100488.44;;;10.79;65.10
36260;BME280;22296;50.824;5.644;2023-02-22T03:11:21;100477.09;;;10.80;65.04
36260;BME280;22296;50.824;5.644;2023-02-22T03:17:03;100477.69;;;10.77;65.08
36260;BME280;22296;50.824;5.644;2023-02-22T03:19:36;100472.69;;;10.79;65.13
36260;BME280;22296;50.824;5.644;2023-02-22T03:22:16;100471.34;;;10.77;65.17
36260;BME280;22296;50.824;5.644;2023-02-22T03:27:30;100463.63;;;10.79;65.07
36260;BME280;22296;50.824;5.644;2023-02-22T03:30:21;100455.63;;;10.77;65.18
36260;BME280;22296;50.824;5.644;2023-02-22T03:32:53;100456.47;;;10.78;65.18
36260;BME280;22296;50.824;5.644;2023-02-22T03:35:27;100454.00;;;10.76;65.20
36260;BME280;22296;50.824;5.644;2023-02-22T03:37:59;100448.47;;;10.76;64.98
36260;BME280;22296;50.824;5.644;2023-02-22T03:40:38;100444.91;;;10.76;65.06
36260;BME280;22296;50.824;5.644;2023-02-22T03:43:15;100448.47;;;10.76;65.06
36260;BME280;22296;50.824;5.644;2023-02-22T03:45:47;100445.72;;;10.76;65.07
36260;BME280;22296;50.824;5.644;2023-02-22T03:48:53;100441.34;;;10.75;65.22
36260;BME280;22296;50.824;5.644;2023-02-22T03:51:41;100441.34;;;10.75;65.11
36260;BME280;22296;50.824;5.644;2023-02-22T03:54:08;100434.06;;;10.79;65.00
36260;BME280;22296;50.824;5.644;2023-02-22T03:56:51;100427.69;;;10.98;65.00
36260;BME280;22296;50.824;5.644;2023-02-22T03:59:21;100434.00;;;10.84;65.19
36260;BME280;22296;50.824;5.644;2023-02-22T04:01:53;100428.88;;;10.78;65.39
36260;BME280;22296;50.824;5.644;2023-02-22T04:04:22;100441.34;;;10.75;65.43
36260;BME280;22296;50.824;5.644;2023-02-22T04:06:52;100434.16;;;10.74;65.30
36260;BME280;22296;50.824;5.644;2023-02-22T04:09:20;100428.66;;;10.74;65.24
36260;BME280;22296;50.824;5.644;2023-02-22T04:11:47;100426.81;;;10.70;65.39
36260;BME280;22296;50.824;5.644;2023-02-22T04:14:14;100427.59;;;10.70;65.45
36260;BME280;22296;50.824;5.644;2023-02-22T04:16:41;100421.31;;;10.70;65.43
36260;BME280;22296;50.824;5.644;2023-02-22T04:19:09;100419.66;;;10.69;65.31
36260;BME280;22296;50.824;5.644;2023-02-22T04:21:37;100414.44;;;10.67;65.63
36260;BME280;22296;50.824;5.644;2023-02-22T04:24:07;100410.88;;;10.67;65.41
36260;BME280;22296;50.824;5.644;2023-02-22T04:26:34;100408.41;;;10.65;65.60
36260;BME280;22296;50.824;5.644;2023-02-22T04:29:03;100399.63;;;10.63;65.66
36260;BME280;22296;50.824;5.644;2023-02-22T04:31:35;100404.53;;;10.66;65.49
36260;BME280;22296;50.824;5.644;2023-02-22T04:34:03;100399.03;;;10.66;65.54
36260;BME280;22296;50.824;5.644;2023-02-22T04:36:33;100396.34;;;10.61;65.52
36260;BME280;22296;50.824;5.644;2023-02-22T04:39:00;100396.34;;;10.61;65.56
36260;BME280;22296;50.824;5.644;2023-02-22T04:41:29;100392.47;;;10.62;65.53
36260;BME280;22296;50.824;5.644;2023-02-22T04:43:57;100397.97;;;10.62;65.34
36260;BME280;22296;50.824;5.644;2023-02-22T04:46:25;100385.94;;;10.58;65.57
36260;BME280;22296;50.824;5.644;2023-02-22T04:48:52;100380.91;;;10.60;65.37
36260;BME280;22296;50.824;5.644;2023-02-22T04:51:23;100379.00;;;10.61;65.38
36260;BME280;22296;50.824;5.644;2023-02-22T04:53:57;100383.69;;;10.60;65.49
36260;BME280;22296;50.824;5.644;2023-02-22T04:56:24;100382.03;;;10.59;65.55
36260;BME280;22296;50.824;5.644;2023-02-22T04:58:51;100374.91;;;10.58;65.44
36260;BME280;22296;50.824;5.644;2023-02-22T05:01:18;100372.16;;;10.58;65.44
36260;BME280;22296;50.824;5.644;2023-02-22T05:03:46;100366.63;;;10.58;65.53
36260;BME280;22296;50.824;5.644;2023-02-22T05:06:12;100364.16;;;10.57;65.48
36260;BME280;22296;50.824;5.644;2023-02-22T05:08:39;100358.97;;;10.55;65.41
36260;BME280;22296;50.824;5.644;2023-02-22T05:11:06;100352.63;;;10.55;65.43
36260;BME280;22296;50.824;5.644;2023-02-22T05:13:33;100355.66;;;10.53;65.34
36260;BME280;22296;50.824;5.644;2023-02-22T05:16:00;100351.78;;;10.54;65.50
36260;BME280;22296;50.824;5.644;2023-02-22T05:18:28;100345.47;;;10.54;65.52
36260;BME280;22296;50.824;5.644;2023-02-22T05:20:55;100343.03;;;10.52;65.43
36260;BME280;22296;50.824;5.644;2023-02-22T05:23:22;100343.84;;;10.53;65.42
36260;BME280;22296;50.824;5.644;2023-02-22T05:25:49;100348.03;;;10.50;65.45
36260;BME280;22296;50.824;5.644;2023-02-22T05:28:15;100332.59;;;10.49;65.34
36260;BME280;22296;50.824;5.644;2023-02-22T05:30:42;100337.00;;;10.50;65.33
36260;BME280;22296;50.824;5.644;2023-02-22T05:33:09;100336.47;;;10.48;65.49
36260;BME280;22296;50.824;5.644;2023-02-22T05:35:36;100331.25;;;10.47;65.57
36260;BME280;22296;50.824;5.644;2023-02-22T05:38:03;100329.34;;;10.47;65.25
36260;BME280;22296;50.824;5.644;2023-02-22T05:40:31;100322.19;;;10.46;65.30
36260;BME280;22296;50.824;5.644;2023-02-22T05:42:58;100317.78;;;10.45;65.34
36260;BME280;22296;50.824;5.644;2023-02-22T05:45:27;100318.09;;;10.44;65.47
36260;BME280;22296;50.824;5.644;2023-02-22T05:47:55;100307.34;;;10.42;65.55
36260;BME280;22296;50.824;5.644;2023-02-22T05:50:22;100313.41;;;10.44;65.43
36260;BME280;22296;50.824;5.644;2023-02-22T05:52:51;100310.94;;;10.43;65.36
36260;BME280;22296;50.824;5.644;2023-02-22T05:55:20;100310.63;;;10.44;65.54
36260;BME280;22296;50.824;5.644;2023-02-22T05:57:47;100299.91;;;10.43;65.28
36260;BME280;22296;50.824;5.644;2023-02-22T06:00:20;100301.31;;;10.40;65.30
36260;BME280;22296;50.824;5.644;2023-02-22T06:03:08;100300.81;;;10.38;65.36
36260;BME280;22296;50.824;5.644;2023-02-22T06:05:38;100295.31;;;10.38;65.41
36260;BME280;22296;50.824;5.644;2023-02-22T06:08:06;100287.88;;;10.39;65.42
36260;BME280;22296;50.824;5.644;2023-02-22T06:10:33;100298.06;;;10.38;65.44
36260;BME280;22296;50.824;5.644;2023-02-22T06:13:00;100288.47;;;10.36;65.34
36260;BME280;22296;50.824;5.644;2023-02-22T06:15:28;100284.28;;;10.38;65.24
36260;BME280;22296;50.824;5.644;2023-02-22T06:17:55;100285.41;;;10.37;65.22
36260;BME280;22296;50.824;5.644;2023-02-22T06:20:24;100286.22;;;10.38;65.36
36260;BME280;22296;50.824;5.644;2023-02-22T06:22:53;100281.00;;;10.36;65.35
36260;BME280;22296;50.824;5.644;2023-02-22T06:25:23;100274.97;;;10.34;65.36
36260;BME280;22296;50.824;5.644;2023-02-22T06:27:49;100278.88;;;10.33;65.38
36260;BME280;22296;50.824;5.644;2023-02-22T06:30:19;100284.88;;;10.35;65.29
36260;BME280;22296;50.824;5.644;2023-02-22T06:32:46;100271.41;;;10.34;65.35
36260;BME280;22296;50.824;5.644;2023-02-22T06:35:14;100277.22;;;10.32;65.32
36260;BME280;22296;50.824;5.644;2023-02-22T06:37:41;100278.88;;;10.33;65.31
36260;BME280;22296;50.824;5.644;2023-02-22T06:40:08;100274.97;;;10.34;65.25
36260;BME280;22296;50.824;5.644;2023-02-22T06:42:37;100277.22;;;10.32;65.21
36260;BME280;22296;50.824;5.644;2023-02-22T06:45:04;100278.88;;;10.33;65.28
36260;BME280;22296;50.824;5.644;2023-02-22T06:47:31;100280.28;;;10.30;65.28
36260;BME280;22296;50.824;5.644;2023-02-22T06:49:58;100282.22;;;10.30;65.36
36260;BME280;22296;50.824;5.644;2023-02-22T06:52:26;100285.00;;;10.30;65.43
36260;BME280;22296;50.824;5.644;2023-02-22T06:54:53;100281.09;;;10.31;65.26
36260;BME280;22296;50.824;5.644;2023-02-22T06:57:19;100288.84;;;10.29;65.37
36260;BME280;22296;50.824;5.644;2023-02-22T06:59:46;100282.00;;;10.26;65.27
36260;BME280;22296;50.824;5.644;2023-02-22T07:02:13;100288.84;;;10.29;65.17
36260;BME280;22296;50.824;5.644;2023-02-22T07:04:40;100291.09;;;10.27;65.33
36260;BME280;22296;50.824;5.644;2023-02-22T07:07:09;100288.34;;;10.27;65.17
36260;BME280;22296;50.824;5.644;2023-02-22T07:09:36;100294.97;;;10.26;65.36
36260;BME280;22296;50.824;5.644;2023-02-22T07:12:04;100285.59;;;10.27;65.06
36260;BME280;22296;50.824;5.644;2023-02-22T07:14:48;100288.94;;;10.24;65.32
36260;BME280;22296;50.824;5.644;2023-02-22T07:17:15;100282.09;;;10.21;65.26
36260;BME280;22296;50.824;5.644;2023-02-22T07:19:42;100292.22;;;10.26;65.21
36260;BME280;22296;50.824;5.644;2023-02-22T07:22:08;100291.47;;;10.20;65.36
36260;BME280;22296;50.824;5.644;2023-02-22T07:24:35;100288.94;;;10.24;65.31
36260;BME280;22296;50.824;5.644;2023-02-22T07:27:02;100293.91;;;10.22;65.26
36260;BME280;22296;50.824;5.644;2023-02-22T07:29:29;100293.91;;;10.22;65.24
36260;BME280;22296;50.824;5.644;2023-02-22T07:31:57;100282.91;;;10.22;65.47
36260;BME280;22296;50.824;5.644;2023-02-22T07:34:24;100289.22;;;10.22;65.28
36260;BME280;22296;50.824;5.644;2023-02-22T07:36:50;100290.88;;;10.23;65.10
36260;BME280;22296;50.824;5.644;2023-02-22T07:39:17;100295.56;;;10.23;65.13
36260;BME280;22296;50.824;5.644;2023-02-22T07:41:44;100297.81;;;10.21;65.20
36260;BME280;22296;50.824;5.644;2023-02-22T07:44:21;100295.56;;;10.23;65.35
36260;BME280;22296;50.824;5.644;2023-02-22T07:46:48;100300.56;;;10.21;65.19
36260;BME280;22296;50.824;5.644;2023-02-22T07:49:16;100296.69;;;10.22;65.29
36260;BME280;22296;50.824;5.644;2023-02-22T07:51:42;100297.81;;;10.21;65.31
36260;BME280;22296;50.824;5.644;2023-02-22T07:54:09;100293.91;;;10.22;65.00
36260;BME280;22296;50.824;5.644;2023-02-22T07:56:36;100302.50;;;10.20;65.58
36260;BME280;22296;50.824;5.644;2023-02-22T07:59:03;100287.63;;;10.21;65.32
36260;BME280;22296;50.824;5.644;2023-02-22T08:01:30;100289.84;;;10.19;65.19
36260;BME280;22296;50.824;5.644;2023-02-22T08:03:57;100287.63;;;10.21;65.16
36260;BME280;22296;50.824;5.644;2023-02-22T08:06:24;100293.13;;;10.21;65.14
36260;BME280;22296;50.824;5.644;2023-02-22T08:08:51;100286.78;;;10.21;65.15
36260;BME280;22296;50.824;5.644;2023-02-22T08:11:18;100287.31;;;10.23;65.12
36260;BME280;22296;50.824;5.644;2023-02-22T08:13:45;100285.16;;;10.20;65.12
36260;BME280;22296;50.824;5.644;2023-02-22T08:16:11;100284.03;;;10.21;65.13
36260;BME280;22296;50.824;5.644;2023-02-22T08:18:38;100282.38;;;10.20;65.00
36260;BME280;22296;50.824;5.644;2023-02-22T08:21:06;100279.63;;;10.20;65.26
36260;BME280;22296;50.824;5.644;2023-02-22T08:23:33;100282.38;;;10.20;65.13
36260;BME280;22296;50.824;5.644;2023-02-22T08:26:09;100280.47;;;10.20;65.18
36260;BME280;22296;50.824;5.644;2023-02-22T08:28:36;100278.00;;;10.19;65.18
36260;BME280;22296;50.824;5.644;2023-02-22T08:31:03;100281.28;;;10.21;65.14
36260;BME280;22296;50.824;5.644;2023-02-22T08:33:33;100284.31;;;10.19;65.16
36260;BME280;22296;50.824;5.644;2023-02-22T08:36:01;100283.22;;;10.20;64.92
36260;BME280;22296;50.824;5.644;2023-02-22T08:38:29;100272.47;;;10.19;64.99
36260;BME280;22296;50.824;5.644;2023-02-22T08:40:56;100278.81;;;10.19;65.09
36260;BME280;22296;50.824;5.644;2023-02-22T08:43:23;100281.28;;;10.21;65.17
36260;BME280;22296;50.824;5.644;2023-02-22T08:45:50;100288.41;;;10.22;64.97
36260;BME280;22296;50.824;5.644;2023-02-22T08:48:18;100284.03;;;10.21;64.87
36260;BME280;22296;50.824;5.644;2023-02-22T08:50:45;100286.78;;;10.21;64.88
36260;BME280;22296;50.824;5.644;2023-02-22T08:53:13;100284.03;;;10.21;65.05
36260;BME280;22296;50.824;5.644;2023-02-22T08:55:41;100275.78;;;10.21;65.12
36260;BME280;22296;50.824;5.644;2023-02-22T08:58:08;100285.97;;;10.20;65.13
36260;BME280;22296;50.824;5.644;2023-02-22T09:00:37;100281.28;;;10.21;64.91
36260;BME280;22296;50.824;5.644;2023-02-22T09:03:10;100275.78;;;10.21;65.21
36260;BME280;22296;50.824;5.644;2023-02-22T09:05:39;100278.22;;;10.22;65.07
36260;BME280;22296;50.824;5.644;2023-02-22T09:08:06;100268.63;;;10.20;65.18
36260;BME280;22296;50.824;5.644;2023-02-22T09:10:34;100269.44;;;10.20;65.01
36260;BME280;22296;50.824;5.644;2023-02-22T09:13:01;100270.25;;;10.21;65.07
36260;BME280;22296;50.824;5.644;2023-02-22T09:15:30;100266.38;;;10.22;64.98
36260;BME280;22296;50.824;5.644;2023-02-22T09:17:58;100260.06;;;10.21;64.92
36260;BME280;22296;50.824;5.644;2023-02-22T09:20:25;100256.16;;;10.22;65.04
36260;BME280;22296;50.824;5.644;2023-02-22T09:22:52;100252.91;;;10.20;65.03
36260;BME280;22296;50.824;5.644;2023-02-22T09:25:21;100254.56;;;10.21;65.01
36260;BME280;22296;50.824;5.644;2023-02-22T09:27:50;100255.34;;;10.22;65.04
36260;BME280;22296;50.824;5.644;2023-02-22T09:30:38;100245.16;;;10.22;65.04
36260;BME280;22296;50.824;5.644;2023-02-22T09:33:08;100241.56;;;10.22;64.99
36260;BME280;22296;50.824;5.644;2023-02-22T09:35:37;100235.78;;;10.23;64.85
36260;BME280;22296;50.824;5.644;2023-02-22T09:38:08;100240.47;;;10.23;65.21
36260;BME280;22296;50.824;5.644;2023-02-22T09:40:39;100241.28;;;10.23;65.09
36260;BME280;22296;50.824;5.644;2023-02-22T09:43:30;100247.63;;;10.24;64.83
36260;BME280;22296;50.824;5.644;2023-02-22T09:51:18;100243.72;;;10.25;65.03
36260;BME280;22296;50.824;5.644;2023-02-22T09:53:48;100249.22;;;10.25;64.96
36260;BME280;22296;50.824;5.644;2023-02-22T09:56:18;100254.75;;;10.25;64.90
36260;BME280;22296;50.824;5.644;2023-02-22T09:58:48;100254.75;;;10.25;64.77
36260;BME280;22296;50.824;5.644;2023-02-22T10:03:59;100253.13;;;10.24;64.86
36260;BME280;22296;50.824;5.644;2023-02-22T10:06:29;100256.66;;;10.24;64.86
36260;BME280;22296;50.824;5.644;2023-02-22T10:09:01;100253.13;;;10.24;64.92
36260;BME280;22296;50.824;5.644;2023-02-22T10:11:35;100252.81;;;10.25;64.89
36260;BME280;22296;50.824;5.644;2023-02-22T10:17:09;100243.72;;;10.25;64.82
36260;BME280;22296;50.824;5.644;2023-02-22T10:25:08;100253.63;;;10.26;64.84
36260;BME280;22296;50.824;5.644;2023-02-22T10:28:02;100250.88;;;10.26;64.73
36260;BME280;22296;50.824;5.644;2023-02-22T10:30:32;100254.44;;;10.26;64.82
36260;BME280;22296;50.824;5.644;2023-02-22T10:33:11;100247.81;;;10.27;64.81
36260;BME280;22296;50.824;5.644;2023-02-22T10:35:39;100255.78;;;10.29;64.67
36260;BME280;22296;50.824;5.644;2023-02-22T10:38:17;100245.25;;;10.31;64.90
36260;BME280;22296;50.824;5.644;2023-02-22T10:40:49;100245.25;;;10.31;64.46
36260;BME280;22296;50.824;5.644;2023-02-22T10:43:20;100240.91;;;10.30;64.76
36260;BME280;22296;50.824;5.644;2023-02-22T10:45:51;100237.81;;;10.32;64.50
36260;BME280;22296;50.824;5.644;2023-02-22T10:48:23;100241.41;;;10.32;64.64
36260;BME280;22296;50.824;5.644;2023-02-22T10:50:53;100232.03;;;10.33;64.66
36260;BME280;22296;50.824;5.644;2023-02-22T10:53:26;100222.94;;;10.33;64.57
36260;BME280;22296;50.824;5.644;2023-02-22T11:06:36;100227.00;;;10.35;64.64
36260;BME280;22296;50.824;5.644;2023-02-22T11:09:15;100222.50;;;10.39;64.64
36260;BME280;22296;50.824;5.644;2023-02-22T11:11:45;100222.50;;;10.39;64.62
36260;BME280;22296;50.824;5.644;2023-02-22T11:14:25;100233.53;;;10.39;64.43
36260;BME280;22296;50.824;5.644;2023-02-22T11:16:56;100234.34;;;10.40;64.54
36260;BME280;22296;50.824;5.644;2023-02-22T11:19:26;100229.66;;;10.40;64.62
36260;BME280;22296;50.824;5.644;2023-02-22T11:22:07;100232.91;;;10.42;64.45
36260;BME280;22296;50.824;5.644;2023-02-22T11:24:46;100228.22;;;10.43;64.37
36260;BME280;22296;50.824;5.644;2023-02-22T11:27:54;100229.06;;;10.43;64.46
36260;BME280;22296;50.824;5.644;2023-02-22T11:30:26;100235.06;;;10.45;64.34
36260;BME280;22296;50.824;5.644;2023-02-22T11:32:57;100229.88;;;10.44;64.34
36260;BME280;22296;50.824;5.644;2023-02-22T11:38:10;100228.44;;;10.46;64.39
36260;BME280;22296;50.824;5.644;2023-02-22T11:40:37;100230.09;;;10.47;64.40
36260;BME280;22296;50.824;5.644;2023-02-22T11:43:16;100230.09;;;10.47;64.36
36260;BME280;22296;50.824;5.644;2023-02-22T11:48:32;100231.09;;;10.51;64.29
36260;BME280;22296;50.824;5.644;2023-02-22T11:51:11;100236.81;;;10.55;64.28
36260;BME280;22296;50.824;5.644;2023-02-22T11:56:32;100231.31;;;10.55;64.22
36260;BME280;22296;50.824;5.644;2023-02-22T12:02:12;100239.25;;;10.56;64.20
36260;BME280;22296;50.824;5.644;2023-02-22T12:05:05;100225.19;;;10.58;64.29
36260;BME280;22296;50.824;5.644;2023-02-22T12:10:34;100231.72;;;10.62;64.02
36260;BME280;22296;50.824;5.644;2023-02-22T12:19:20;100228.66;;;10.63;64.22
36260;BME280;22296;50.824;5.644;2023-02-22T12:21:56;100226.41;;;10.65;64.21
36260;BME280;22296;50.824;5.644;2023-02-22T12:24:28;100224.19;;;10.67;64.04
36260;BME280;22296;50.824;5.644;2023-02-22T12:27:01;100222.44;;;10.71;64.04
36260;BME280;22296;50.824;5.644;2023-02-22T12:29:36;100218.03;;;10.70;64.05
36260;BME280;22296;50.824;5.644;2023-02-22T12:32:17;100221.94;;;10.69;64.16
36260;BME280;22296;50.824;5.644;2023-02-22T12:34:52;100222.22;;;10.68;64.15
36260;BME280;22296;50.824;5.644;2023-02-22T12:45:41;100207.00;;;10.70;63.98
36260;BME280;22296;50.824;5.644;2023-02-22T12:48:28;100208.97;;;10.70;64.09
36260;BME280;22296;50.824;5.644;2023-02-22T12:57:13;100215.59;;;10.69;64.08
36260;BME280;22296;50.824;5.644;2023-02-22T12:59:58;100215.91;;;10.67;64.21
36260;BME280;22296;50.824;5.644;2023-02-22T13:02:39;100214.75;;;10.68;64.20
36260;BME280;22296;50.824;5.644;2023-02-22T13:05:15;100221.94;;;10.69;64.29
36260;BME280;22296;50.824;5.644;2023-02-22T13:13:39;100216.69;;;10.68;64.09
36260;BME280;22296;50.824;5.644;2023-02-22T13:27:19;100210.06;;;10.69;64.18
36260;BME280;22296;50.824;5.644;2023-02-22T13:29:52;100209.47;;;10.72;64.06
36260;BME280;22296;50.824;5.644;2023-02-22T13:40:50;100212.72;;;10.74;64.17
36260;BME280;22296;50.824;5.644;2023-02-22T13:43:54;100208.34;;;10.73;64.20
36260;BME280;22296;50.824;5.644;2023-02-22T13:49:28;100210.28;;;10.72;64.08
36260;BME280;22296;50.824;5.644;2023-02-22T13:52:07;100217.41;;;10.73;64.12
36260;BME280;22296;50.824;5.644;2023-02-22T13:54:43;100214.38;;;10.75;64.26
36260;BME280;22296;50.824;5.644;2023-02-22T13:57:26;100223.47;;;10.75;64.08
36260;BME280;22296;50.824;5.644;2023-02-22T14:13:06;100224.78;;;10.78;64.15
36260;BME280;22296;50.824;5.644;2023-02-22T14:15:33;100231.13;;;10.78;64.14
36260;BME280;22296;50.824;5.644;2023-02-22T14:18:02;100223.13;;;10.77;64.11
36260;BME280;22296;50.824;5.644;2023-02-22T14:20:35;100229.47;;;10.77;64.20
36260;BME280;22296;50.824;5.644;2023-02-22T14:23:40;100231.94;;;10.79;64.07
36260;BME280;22296;50.824;5.644;2023-02-22T14:31:07;100231.13;;;10.78;64.02
36260;BME280;22296;50.824;5.644;2023-02-22T14:34:11;100227.75;;;10.81;64.04
36260;BME280;22296;50.824;5.644;2023-02-22T14:39:49;100234.38;;;10.80;64.13
36260;BME280;22296;50.824;5.644;2023-02-22T14:47:45;100236.31;;;10.80;64.11
36260;BME280;22296;50.824;5.644;2023-02-22T14:53:25;100242.34;;;10.82;64.12
36260;BME280;22296;50.824;5.644;2023-02-22T14:56:05;100247.84;;;10.82;64.21
36260;BME280;22296;50.824;5.644;2023-02-22T14:58:56;100244.31;;;10.81;64.30
36260;BME280;22296;50.824;5.644;2023-02-22T15:01:28;100248.66;;;10.82;63.93
36260;BME280;22296;50.824;5.644;2023-02-22T15:04:28;100242.66;;;10.80;64.04
36260;BME280;22296;50.824;5.644;2023-02-22T15:06:58;100250.94;;;10.80;63.82
36260;BME280;22296;50.824;5.644;2023-02-22T15:09:30;100241.53;;;10.81;64.00
36260;BME280;22296;50.824;5.644;2023-02-22T15:14:33;100245.41;;;10.80;64.11
36260;BME280;22296;50.824;5.644;2023-02-22T15:17:08;100238.78;;;10.81;64.24
36260;BME280;22296;50.824;5.644;2023-02-22T15:19:40;100241.53;;;10.81;64.19
36260;BME280;22296;50.824;5.644;2023-02-22T15:22:19;100241.53;;;10.81;64.13
36260;BME280;22296;50.824;5.644;2023-02-22T15:24:59;100240.41;;;10.82;64.28
36260;BME280;22296;50.824;5.644;2023-02-22T15:27:26;100234.88;;;10.82;64.11
36260;BME280;22296;50.824;5.644;2023-02-22T15:30:00;100236.03;;;10.81;64.04
36260;BME280;22296;50.824;5.644;2023-02-22T15:32:39;100236.03;;;10.81;64.25
36260;BME280;22296;50.824;5.644;2023-02-22T15:35:26;100243.16;;;10.82;64.25
36260;BME280;22296;50.824;5.644;2023-02-22T15:38:17;100251.44;;;10.82;64.17
36260;BME280;22296;50.824;5.644;2023-02-22T15:40:45;100243.16;;;10.82;64.11
36260;BME280;22296;50.824;5.644;2023-02-22T15:43:19;100244.31;;;10.81;64.41
36260;BME280;22296;50.824;5.644;2023-02-22T15:45:50;100243.97;;;10.83;64.09